Buoy 51659

sailwx.info

Track history (hours):
 
Tides and Currents Weather Stations Pressure Air Temp Water Temp Dewpoint Dewpoint Depression Visibility Wind Speed Wind Dir Waves Ship Positions

Drifting buoy 51659

Last reported at 2017-Mar-24 11:00 UTC. Time now 2017-Mar-24 16:06 UTC.
Position S 16°39' E 168°29'.

Water temperature 29.2 ° C

Date/timePositionNaut miles runAvg speedWind from/ knotsBaromVisibWave heightAir tempDewpointWater temp
2017-Mar-24 11:00S 16°39' E 168°29'2 2.1 29.2
2017-Mar-24 10:00S 16°40' E 168°31'0 0.0 29.3
2017-Mar-24 09:00S 16°40' E 168°31'2 1.8 29.3
2017-Mar-24 08:00S 16°38' E 168°31'2 0.8 29.3
2017-Mar-24 05:00S 16°38' E 168°34'1 1.1 29.4
2017-Mar-24 04:00S 16°38' E 168°35'1 1.1 29.5
2017-Mar-24 03:00S 16°38' E 168°34'1 0.3 29.5
2017-Mar-23 23:00S 16°38' E 168°35'0 0.0 29.2
2017-Mar-23 21:00S 16°38' E 168°35'1 1.3 29.1
2017-Mar-23 20:00S 16°38' E 168°36'0 0.0 29.1
2017-Mar-23 19:00S 16°38' E 168°36'3 0.3 29.1
2017-Mar-23 11:00S 16°37' E 168°38'2 1.8 29.2
2017-Mar-23 10:00S 16°36' E 168°40'1 0.3 29.2
2017-Mar-23 08:00S 16°35' E 168°40'0 0.0 29.2
2017-Mar-23 07:00S 16°35' E 168°40'1 0.6 29.3
2017-Mar-23 06:00S 16°36' E 168°40'1 0.8 29.3
2017-Mar-23 05:00S 16°35' E 168°41'0 0.0 29.3
2017-Mar-23 04:00S 16°35' E 168°41'1 1.3 29.4
2017-Mar-23 03:00S 16°34' E 168°41'1 0.2 29.3
2017-Mar-22 22:00S 16°34' E 168°42'2 0.3 29.2
2017-Mar-22 17:00S 16°32' E 168°43'0 0.0 29.2
2017-Mar-22 15:00S 16°32' E 168°43'2 0.6 29.2
2017-Mar-22 11:00S 16°31' E 168°45'1 0.8 29.2
2017-Mar-22 10:00S 16°30' E 168°46'1 0.6 29.2
2017-Mar-22 09:00S 16°29' E 168°46'1 0.6 29.2
2017-Mar-22 08:00S 16°29' E 168°46'0 0.0 29.3
2017-Mar-22 07:00S 16°29' E 168°46'1 0.4 29.2
2017-Mar-22 05:00S 16°29' E 168°47'1 0.6 29.3
2017-Mar-22 04:00S 16°29' E 168°47'1 0.8 29.3
2017-Mar-22 03:00S 16°28' E 168°48'2 2.5 29.3
2017-Mar-22 02:00S 16°26' E 168°50'0 0.0 29.3
2017-Mar-21 23:00S 16°26' E 168°50'1 1.3 29.2
2017-Mar-21 22:00S 16°27' E 168°51'1 0.4 29.2
2017-Mar-21 19:00S 16°28' E 168°52'0 0.0 29.2
2017-Mar-21 18:00S 16°28' E 168°52'1 0.6 29.2
2017-Mar-21 17:00S 16°28' E 168°52'2 1.8 29.2
2017-Mar-21 16:00S 16°27' E 168°53'1 0.1 29.3
2017-Mar-21 11:00S 16°26' E 168°53'0 0.0 29.3
2017-Mar-21 10:00S 16°26' E 168°53'0 0.0 29.4
2017-Mar-21 09:00S 16°26' E 168°53'1 0.6 29.4
2017-Mar-21 08:00S 16°26' E 168°54'1 0.8 29.4
2017-Mar-21 07:00S 16°26' E 168°53'1 0.8 29.4
2017-Mar-21 06:00S 16°25' E 168°54'0 0.0 29.4
2017-Mar-21 05:00S 16°25' E 168°54'0 0.0 29.4
2017-Mar-21 04:00S 16°25' E 168°54'3 3.5 29.4
2017-Mar-21 03:00S 16°22' E 168°56'3 2.7 29.5
2017-Mar-21 02:00S 16°25' E 168°55'3 0.7 29.4
2017-Mar-20 22:00S 16°22' E 168°56'1 0.8 29.3
2017-Mar-20 21:00S 16°22' E 168°56'1 0.6 29.3
2017-Mar-20 20:00S 16°22' E 168°57'2 0.9 29.3
2017-Mar-20 18:00S 16°22' E 168°59'0 0.0 29.3
2017-Mar-20 16:00S 16°22' E 168°59'1 0.8 29.3
2017-Mar-20 15:00S 16°22' E 168°59'1 0.6 29.3
2017-Mar-20 14:00S 16°22' E 169°00'1 0.4 29.4
2017-Mar-20 11:00S 16°21' E 169°01'0 0.0 29.4
2017-Mar-20 10:00S 16°21' E 169°01'1 0.6 29.4
2017-Mar-20 09:00S 16°21' E 169°02'1 0.6 29.4
2017-Mar-20 08:00S 16°21' E 169°01'1 0.6 29.4
2017-Mar-20 06:00S 16°22' E 169°02'0 0.0 29.4
2017-Mar-20 05:00S 16°22' E 169°02'1 0.6 29.5
2017-Mar-20 04:00S 16°21' E 169°02'2 1.7 29.5
2017-Mar-20 03:00S 16°21' E 169°04'0 0.0 29.5
2017-Mar-19 23:00S 16°21' E 169°04'1 0.3 29.4
2017-Mar-19 21:00S 16°20' E 169°04'1 0.6 29.4
2017-Mar-19 19:00S 16°20' E 169°05'0 0.0 29.4
2017-Mar-19 18:00S 16°20' E 169°05'1 0.6 29.4
2017-Mar-19 17:00S 16°20' E 169°05'1 0.6 29.4
2017-Mar-19 16:00S 16°20' E 169°06'0 0.0 29.4
2017-Mar-19 15:00S 16°20' E 169°06'1 0.6 29.5
2017-Mar-19 14:00S 16°20' E 169°07'0 0.0 29.5
2017-Mar-19 11:00S 16°20' E 169°07'1 0.6 29.5
2017-Mar-19 10:00S 16°20' E 169°07'1 0.6 29.5
2017-Mar-19 09:00S 16°20' E 169°07'0 0.0 29.5
2017-Mar-19 08:00S 16°20' E 169°07'1 1.3 29.5
2017-Mar-19 07:00S 16°19' E 169°08'1 0.6 29.5
2017-Mar-19 06:00S 16°19' E 169°08'1 0.8 29.6
2017-Mar-19 05:00S 16°19' E 169°08'2 1.7 29.6
2017-Mar-19 04:00S 16°18' E 169°10'1 0.8 29.6
2017-Mar-19 03:00S 16°19' E 169°09'2 0.3 29.6
2017-Mar-18 21:00S 16°18' E 169°11'1 1.3 29.5
2017-Mar-18 20:00S 16°19' E 169°12'1 0.6 29.5
2017-Mar-18 18:00S 16°18' E 169°13'1 0.3 29.5
2017-Mar-18 16:00S 16°17' E 169°13'1 0.3 29.5
2017-Mar-18 11:00S 16°17' E 169°14'1 1.3 29.6
2017-Mar-18 10:00S 16°16' E 169°16'2 0.6 29.5
2017-Mar-18 07:00S 16°15' E 169°17'2 0.8 29.6
2017-Mar-18 05:00S 16°14' E 169°18'2 1.7 29.6
2017-Mar-18 04:00S 16°13' E 169°19'0 0.0 29.6
2017-Mar-18 03:00S 16°13' E 169°19'3 0.5 29.5
2017-Mar-17 22:00S 16°11' E 169°22'1 0.6 29.7
2017-Mar-17 21:00S 16°11' E 169°22'1 0.8 29.7
2017-Mar-17 20:00S 16°10' E 169°22'0 0.0 29.7
2017-Mar-17 19:00S 16°10' E 169°22'1 0.6 29.7
2017-Mar-17 18:00S 16°10' E 169°22'1 0.3 29.8
2017-Mar-17 16:00S 16°09' E 169°22'1 0.6 29.9
2017-Mar-17 15:00S 16°09' E 169°22'0 0.0 29.9
2017-Mar-17 14:00S 16°09' E 169°22'2 0.8 29.9
2017-Mar-17 11:00S 16°07' E 169°21'1 0.8 30.0
2017-Mar-17 10:00S 16°06' E 169°22'1 0.6 30.0
2017-Mar-17 09:00S 16°05' E 169°22'2 0.9 30.0
2017-Mar-17 07:00S 16°04' E 169°22'1 1.3 30.0
2017-Mar-17 06:00S 16°02' E 169°22'3 3.0 30.1
2017-Mar-17 05:00S 16°00' E 169°24'0 0.0 30.2
2017-Mar-17 03:00S 16°00' E 169°24'5 1.1 30.2
2017-Mar-16 23:00S 15°57' E 169°28'1 1.2 29.8
2017-Mar-16 22:00S 15°57' E 169°29'2 0.8 29.8
2017-Mar-16 20:00S 15°56' E 169°30'1 1.3 29.8
2017-Mar-16 19:00S 15°55' E 169°31'1 0.4 29.7
2017-Mar-16 16:00S 15°56' E 169°32'0 0.0 29.8
2017-Mar-16 15:00S 15°56' E 169°32'1 0.6 29.8
2017-Mar-16 14:00S 15°56' E 169°33'2 0.8 29.8
2017-Mar-16 11:00S 15°56' E 169°35'0 0.0 29.8
2017-Mar-16 09:00S 15°56' E 169°35'1 0.4 29.9
2017-Mar-16 06:00S 15°56' E 169°37'1 0.6 29.9
2017-Mar-16 04:00S 15°58' E 169°37'0 0.0 30.0
2017-Mar-16 03:00S 15°58' E 169°37'1 0.1 30.0
2017-Mar-15 22:00S 15°57' E 169°37'0 0.0 29.7
2017-Mar-15 21:00S 15°57' E 169°37'1 0.7 29.7
2017-Mar-15 19:00S 15°56' E 169°35'1 0.6 29.7
2017-Mar-15 18:00S 15°56' E 169°36'6 0.7 29.7
2017-Mar-15 10:00S 15°51' E 169°38'2 2.1 29.8
2017-Mar-15 09:00S 15°49' E 169°39'1 0.3 29.9
2017-Mar-15 07:00S 15°49' E 169°39'2 2.1 29.9
2017-Mar-15 06:00S 15°47' E 169°41'0 0.0 30.0
2017-Mar-15 05:00S 15°47' E 169°41'6 5.8 30.0
2017-Mar-15 04:00S 15°47' E 169°47'0 0.0 30.0
2017-Mar-15 03:00S 15°47' E 169°47'2 0.4 30.0
2017-Mar-14 23:00S 15°46' E 169°48'3 1.7 29.9
2017-Mar-14 21:00S 15°46' E 169°52'1 0.6 29.8
2017-Mar-14 20:00S 15°45' E 169°52'0 0.0 29.8
2017-Mar-14 18:00S 15°45' E 169°52'2 1.2 29.8
2017-Mar-14 16:00S 15°47' E 169°53'0 0.0 29.8
2017-Mar-14 15:00S 15°47' E 169°53'2 0.6 29.8
2017-Mar-14 11:00S 15°49' E 169°55'   29.8
Track history (hours):
 
Tides and Currents Weather Stations Pressure Air Temp Water Temp Dewpoint Dewpoint Depression Visibility Wind Speed Wind Dir Waves Ship Positions

Drifting buoy 51659

Last reported at 2017-Mar-24 11:00 UTC. Time now 2017-Mar-24 16:06 UTC.
Position S 16°39' E 168°29'.

Water temperature 29.2 ° C

Date/timePositionNaut miles runAvg speedWind from/ knotsBaromVisibWave heightAir tempDewpointWater temp
2017-Mar-24 11:00S 16°39' E 168°29'2 2.1 29.2
2017-Mar-24 10:00S 16°40' E 168°31'0 0.0 29.3
2017-Mar-24 09:00S 16°40' E 168°31'2 1.8 29.3
2017-Mar-24 08:00S 16°38' E 168°31'2 0.8 29.3
2017-Mar-24 05:00S 16°38' E 168°34'1 1.1 29.4
2017-Mar-24 04:00S 16°38' E 168°35'1 1.1 29.5
2017-Mar-24 03:00S 16°38' E 168°34'1 0.3 29.5
2017-Mar-23 23:00S 16°38' E 168°35'0 0.0 29.2
2017-Mar-23 21:00S 16°38' E 168°35'1 1.3 29.1
2017-Mar-23 20:00S 16°38' E 168°36'0 0.0 29.1
2017-Mar-23 19:00S 16°38' E 168°36'3 0.3 29.1
2017-Mar-23 11:00S 16°37' E 168°38'2 1.8 29.2
2017-Mar-23 10:00S 16°36' E 168°40'1 0.3 29.2
2017-Mar-23 08:00S 16°35' E 168°40'0 0.0 29.2
2017-Mar-23 07:00S 16°35' E 168°40'1 0.6 29.3
2017-Mar-23 06:00S 16°36' E 168°40'1 0.8 29.3
2017-Mar-23 05:00S 16°35' E 168°41'0 0.0 29.3
2017-Mar-23 04:00S 16°35' E 168°41'1 1.3 29.4
2017-Mar-23 03:00S 16°34' E 168°41'1 0.2 29.3
2017-Mar-22 22:00S 16°34' E 168°42'2 0.3 29.2
2017-Mar-22 17:00S 16°32' E 168°43'0 0.0 29.2
2017-Mar-22 15:00S 16°32' E 168°43'2 0.6 29.2
2017-Mar-22 11:00S 16°31' E 168°45'1 0.8 29.2
2017-Mar-22 10:00S 16°30' E 168°46'1 0.6 29.2
2017-Mar-22 09:00S 16°29' E 168°46'1 0.6 29.2
2017-Mar-22 08:00S 16°29' E 168°46'0 0.0 29.3
2017-Mar-22 07:00S 16°29' E 168°46'1 0.4 29.2
2017-Mar-22 05:00S 16°29' E 168°47'1 0.6 29.3
2017-Mar-22 04:00S 16°29' E 168°47'1 0.8 29.3
2017-Mar-22 03:00S 16°28' E 168°48'2 2.5 29.3
2017-Mar-22 02:00S 16°26' E 168°50'0 0.0 29.3
2017-Mar-21 23:00S 16°26' E 168°50'1 1.3 29.2
2017-Mar-21 22:00S 16°27' E 168°51'1 0.4 29.2
2017-Mar-21 19:00S 16°28' E 168°52'0 0.0 29.2
2017-Mar-21 18:00S 16°28' E 168°52'1 0.6 29.2
2017-Mar-21 17:00S 16°28' E 168°52'2 1.8 29.2
2017-Mar-21 16:00S 16°27' E 168°53'1 0.1 29.3
2017-Mar-21 11:00S 16°26' E 168°53'0 0.0 29.3
2017-Mar-21 10:00S 16°26' E 168°53'0 0.0 29.4
2017-Mar-21 09:00S 16°26' E 168°53'1 0.6 29.4
2017-Mar-21 08:00S 16°26' E 168°54'1 0.8 29.4
2017-Mar-21 07:00S 16°26' E 168°53'1 0.8 29.4
2017-Mar-21 06:00S 16°25' E 168°54'0 0.0 29.4
2017-Mar-21 05:00S 16°25' E 168°54'0 0.0 29.4
2017-Mar-21 04:00S 16°25' E 168°54'3 3.5 29.4
2017-Mar-21 03:00S 16°22' E 168°56'3 2.7 29.5
2017-Mar-21 02:00S 16°25' E 168°55'3 0.7 29.4
2017-Mar-20 22:00S 16°22' E 168°56'1 0.8 29.3
2017-Mar-20 21:00S 16°22' E 168°56'1 0.6 29.3
2017-Mar-20 20:00S 16°22' E 168°57'2 0.9 29.3
2017-Mar-20 18:00S 16°22' E 168°59'0 0.0 29.3
2017-Mar-20 16:00S 16°22' E 168°59'1 0.8 29.3
2017-Mar-20 15:00S 16°22' E 168°59'1 0.6 29.3
2017-Mar-20 14:00S 16°22' E 169°00'1 0.4 29.4
2017-Mar-20 11:00S 16°21' E 169°01'0 0.0 29.4
2017-Mar-20 10:00S 16°21' E 169°01'1 0.6 29.4
2017-Mar-20 09:00S 16°21' E 169°02'1 0.6 29.4
2017-Mar-20 08:00S 16°21' E 169°01'1 0.6 29.4
2017-Mar-20 06:00S 16°22' E 169°02'0 0.0 29.4
2017-Mar-20 05:00S 16°22' E 169°02'1 0.6 29.5
2017-Mar-20 04:00S 16°21' E 169°02'2 1.7 29.5
2017-Mar-20 03:00S 16°21' E 169°04'0 0.0 29.5
2017-Mar-19 23:00S 16°21' E 169°04'1 0.3 29.4
2017-Mar-19 21:00S 16°20' E 169°04'1 0.6 29.4
2017-Mar-19 19:00S 16°20' E 169°05'0 0.0 29.4
2017-Mar-19 18:00S 16°20' E 169°05'1 0.6 29.4
2017-Mar-19 17:00S 16°20' E 169°05'1 0.6 29.4
2017-Mar-19 16:00S 16°20' E 169°06'0 0.0 29.4
2017-Mar-19 15:00S 16°20' E 169°06'1 0.6 29.5
2017-Mar-19 14:00S 16°20' E 169°07'0 0.0 29.5
2017-Mar-19 11:00S 16°20' E 169°07'1 0.6 29.5
2017-Mar-19 10:00S 16°20' E 169°07'1 0.6 29.5
2017-Mar-19 09:00S 16°20' E 169°07'0 0.0 29.5
2017-Mar-19 08:00S 16°20' E 169°07'1 1.3 29.5
2017-Mar-19 07:00S 16°19' E 169°08'1 0.6 29.5
2017-Mar-19 06:00S 16°19' E 169°08'1 0.8 29.6
2017-Mar-19 05:00S 16°19' E 169°08'2 1.7 29.6
2017-Mar-19 04:00S 16°18' E 169°10'1 0.8 29.6
2017-Mar-19 03:00S 16°19' E 169°09'2 0.3 29.6
2017-Mar-18 21:00S 16°18' E 169°11'1 1.3 29.5
2017-Mar-18 20:00S 16°19' E 169°12'1 0.6 29.5
2017-Mar-18 18:00S 16°18' E 169°13'1 0.3 29.5
2017-Mar-18 16:00S 16°17' E 169°13'1 0.3 29.5
2017-Mar-18 11:00S 16°17' E 169°14'1 1.3 29.6
2017-Mar-18 10:00S 16°16' E 169°16'2 0.6 29.5
2017-Mar-18 07:00S 16°15' E 169°17'2 0.8 29.6
2017-Mar-18 05:00S 16°14' E 169°18'2 1.7 29.6
2017-Mar-18 04:00S 16°13' E 169°19'0 0.0 29.6
2017-Mar-18 03:00S 16°13' E 169°19'3 0.5 29.5
2017-Mar-17 22:00S 16°11' E 169°22'1 0.6 29.7
2017-Mar-17 21:00S 16°11' E 169°22'1 0.8 29.7
2017-Mar-17 20:00S 16°10' E 169°22'0 0.0 29.7
2017-Mar-17 19:00S 16°10' E 169°22'1 0.6 29.7
2017-Mar-17 18:00S 16°10' E 169°22'1 0.3 29.8
2017-Mar-17 16:00S 16°09' E 169°22'1 0.6 29.9
2017-Mar-17 15:00S 16°09' E 169°22'0 0.0 29.9
2017-Mar-17 14:00S 16°09' E 169°22'2 0.8 29.9
2017-Mar-17 11:00S 16°07' E 169°21'1 0.8 30.0
2017-Mar-17 10:00S 16°06' E 169°22'1 0.6 30.0
2017-Mar-17 09:00S 16°05' E 169°22'2 0.9 30.0
2017-Mar-17 07:00S 16°04' E 169°22'1 1.3 30.0
2017-Mar-17 06:00S 16°02' E 169°22'3 3.0 30.1
2017-Mar-17 05:00S 16°00' E 169°24'0 0.0 30.2
2017-Mar-17 03:00S 16°00' E 169°24'5 1.1 30.2
2017-Mar-16 23:00S 15°57' E 169°28'1 1.2 29.8
2017-Mar-16 22:00S 15°57' E 169°29'2 0.8 29.8
2017-Mar-16 20:00S 15°56' E 169°30'1 1.3 29.8
2017-Mar-16 19:00S 15°55' E 169°31'1 0.4 29.7
2017-Mar-16 16:00S 15°56' E 169°32'0 0.0 29.8
2017-Mar-16 15:00S 15°56' E 169°32'1 0.6 29.8
2017-Mar-16 14:00S 15°56' E 169°33'2 0.8 29.8
2017-Mar-16 11:00S 15°56' E 169°35'0 0.0 29.8
2017-Mar-16 09:00S 15°56' E 169°35'1 0.4 29.9
2017-Mar-16 06:00S 15°56' E 169°37'1 0.6 29.9
2017-Mar-16 04:00S 15°58' E 169°37'0 0.0 30.0
2017-Mar-16 03:00S 15°58' E 169°37'1 0.1 30.0
2017-Mar-15 22:00S 15°57' E 169°37'0 0.0 29.7
2017-Mar-15 21:00S 15°57' E 169°37'1 0.7 29.7
2017-Mar-15 19:00S 15°56' E 169°35'1 0.6 29.7
2017-Mar-15 18:00S 15°56' E 169°36'6 0.7 29.7
2017-Mar-15 10:00S 15°51' E 169°38'2 2.1 29.8
2017-Mar-15 09:00S 15°49' E 169°39'1 0.3 29.9
2017-Mar-15 07:00S 15°49' E 169°39'2 2.1 29.9
2017-Mar-15 06:00S 15°47' E 169°41'0 0.0 30.0
2017-Mar-15 05:00S 15°47' E 169°41'6 5.8 30.0
2017-Mar-15 04:00S 15°47' E 169°47'0 0.0 30.0
2017-Mar-15 03:00S 15°47' E 169°47'2 0.4 30.0
2017-Mar-14 23:00S 15°46' E 169°48'3 1.7 29.9
2017-Mar-14 21:00S 15°46' E 169°52'1 0.6 29.8
2017-Mar-14 20:00S 15°45' E 169°52'0 0.0 29.8
2017-Mar-14 18:00S 15°45' E 169°52'2 1.2 29.8
2017-Mar-14 16:00S 15°47' E 169°53'0 0.0 29.8
2017-Mar-14 15:00S 15°47' E 169°53'2 0.6 29.8
2017-Mar-14 11:00S 15°49' E 169°55'   29.8

Dump ship's entire track history